sensor_id;sensor_type;location;lat;lon;timestamp;P1;durP1;ratioP1;P2;durP2;ratioP2
21010;SDS011;10663;42.714;23.274;2023-12-04T00:00:04;13.00;;;10.15;;
21010;SDS011;10663;42.714;23.274;2023-12-04T00:01:46;15.52;;;10.88;;
21010;SDS011;10663;42.714;23.274;2023-12-04T00:03:17;15.10;;;10.60;;
21010;SDS011;10663;42.714;23.274;2023-12-04T00:04:47;15.30;;;11.00;;
21010;SDS011;10663;42.714;23.274;2023-12-04T00:06:18;14.57;;;10.63;;
21010;SDS011;10663;42.714;23.274;2023-12-04T00:07:49;14.80;;;10.52;;
21010;SDS011;10663;42.714;23.274;2023-12-04T00:09:20;13.30;;;10.70;;
21010;SDS011;10663;42.714;23.274;2023-12-04T00:10:51;12.70;;;9.90;;
21010;SDS011;10663;42.714;23.274;2023-12-04T00:12:22;12.80;;;10.07;;
21010;SDS011;10663;42.714;23.274;2023-12-04T00:13:53;12.98;;;10.25;;
21010;SDS011;10663;42.714;23.274;2023-12-04T00:15:24;13.70;;;10.38;;
21010;SDS011;10663;42.714;23.274;2023-12-04T00:16:54;13.27;;;9.88;;
21010;SDS011;10663;42.714;23.274;2023-12-04T00:18:25;14.87;;;10.57;;
21010;SDS011;10663;42.714;23.274;2023-12-04T00:19:56;14.90;;;11.30;;
21010;SDS011;10663;42.714;23.274;2023-12-04T00:21:27;14.73;;;10.53;;
21010;SDS011;10663;42.714;23.274;2023-12-04T00:22:57;13.48;;;11.10;;
21010;SDS011;10663;42.714;23.274;2023-12-04T00:24:28;13.77;;;10.13;;
21010;SDS011;10663;42.714;23.274;2023-12-04T00:25:59;13.25;;;10.27;;
21010;SDS011;10663;42.714;23.274;2023-12-04T00:27:29;13.27;;;10.75;;
21010;SDS011;10663;42.714;23.274;2023-12-04T00:29:00;13.57;;;10.43;;
21010;SDS011;10663;42.714;23.274;2023-12-04T00:30:31;14.45;;;10.88;;
21010;SDS011;10663;42.714;23.274;2023-12-04T00:32:02;15.17;;;11.10;;
21010;SDS011;10663;42.714;23.274;2023-12-04T00:33:32;14.17;;;11.00;;
21010;SDS011;10663;42.714;23.274;2023-12-04T00:35:04;15.57;;;10.73;;
21010;SDS011;10663;42.714;23.274;2023-12-04T00:36:35;15.65;;;10.80;;
21010;SDS011;10663;42.714;23.274;2023-12-04T00:38:06;14.77;;;11.00;;
21010;SDS011;10663;42.714;23.274;2023-12-04T00:39:37;14.83;;;11.20;;
21010;SDS011;10663;42.714;23.274;2023-12-04T00:41:07;15.43;;;11.07;;
21010;SDS011;10663;42.714;23.274;2023-12-04T00:42:38;14.15;;;10.57;;
21010;SDS011;10663;42.714;23.274;2023-12-04T00:44:09;14.65;;;11.05;;
21010;SDS011;10663;42.714;23.274;2023-12-04T00:45:40;14.27;;;10.40;;
21010;SDS011;10663;42.714;23.274;2023-12-04T00:47:10;15.20;;;11.60;;
21010;SDS011;10663;42.714;23.274;2023-12-04T00:48:41;13.75;;;10.68;;
21010;SDS011;10663;42.714;23.274;2023-12-04T00:50:12;16.60;;;11.97;;
21010;SDS011;10663;42.714;23.274;2023-12-04T00:51:42;14.53;;;11.63;;
21010;SDS011;10663;42.714;23.274;2023-12-04T00:53:13;16.58;;;12.23;;
21010;SDS011;10663;42.714;23.274;2023-12-04T00:54:44;15.48;;;11.77;;
21010;SDS011;10663;42.714;23.274;2023-12-04T00:56:14;17.85;;;12.50;;
21010;SDS011;10663;42.714;23.274;2023-12-04T00:57:45;14.57;;;10.60;;
21010;SDS011;10663;42.714;23.274;2023-12-04T00:59:16;14.95;;;11.20;;
21010;SDS011;10663;42.714;23.274;2023-12-04T01:00:47;15.02;;;10.70;;
21010;SDS011;10663;42.714;23.274;2023-12-04T01:02:19;15.57;;;11.38;;
21010;SDS011;10663;42.714;23.274;2023-12-04T01:03:49;14.32;;;11.13;;
21010;SDS011;10663;42.714;23.274;2023-12-04T01:05:20;15.53;;;11.03;;
21010;SDS011;10663;42.714;23.274;2023-12-04T01:06:51;16.13;;;11.77;;
21010;SDS011;10663;42.714;23.274;2023-12-04T01:08:22;15.02;;;11.27;;
21010;SDS011;10663;42.714;23.274;2023-12-04T01:09:54;15.02;;;10.90;;
21010;SDS011;10663;42.714;23.274;2023-12-04T01:11:25;14.48;;;11.82;;
21010;SDS011;10663;42.714;23.274;2023-12-04T01:12:55;15.40;;;11.35;;
21010;SDS011;10663;42.714;23.274;2023-12-04T01:14:26;14.68;;;11.02;;
21010;SDS011;10663;42.714;23.274;2023-12-04T01:15:57;15.37;;;12.33;;
21010;SDS011;10663;42.714;23.274;2023-12-04T01:17:27;14.57;;;11.23;;
21010;SDS011;10663;42.714;23.274;2023-12-04T01:18:58;14.67;;;11.63;;
21010;SDS011;10663;42.714;23.274;2023-12-04T01:20:29;13.68;;;11.35;;
21010;SDS011;10663;42.714;23.274;2023-12-04T01:22:00;18.63;;;13.02;;
21010;SDS011;10663;42.714;23.274;2023-12-04T01:23:30;26.45;;;16.60;;
21010;SDS011;10663;42.714;23.274;2023-12-04T01:25:01;16.30;;;11.65;;
21010;SDS011;10663;42.714;23.274;2023-12-04T01:26:37;12.68;;;10.90;;
21010;SDS011;10663;42.714;23.274;2023-12-04T01:28:08;14.18;;;11.30;;
21010;SDS011;10663;42.714;23.274;2023-12-04T01:29:39;13.57;;;10.60;;
21010;SDS011;10663;42.714;23.274;2023-12-04T01:31:09;15.02;;;11.10;;
21010;SDS011;10663;42.714;23.274;2023-12-04T01:32:40;14.85;;;11.50;;
21010;SDS011;10663;42.714;23.274;2023-12-04T01:34:11;14.88;;;10.68;;
21010;SDS011;10663;42.714;23.274;2023-12-04T01:35:42;15.90;;;11.57;;
21010;SDS011;10663;42.714;23.274;2023-12-04T01:37:12;13.50;;;10.43;;
21010;SDS011;10663;42.714;23.274;2023-12-04T01:38:43;14.43;;;10.70;;
21010;SDS011;10663;42.714;23.274;2023-12-04T01:40:14;14.65;;;11.20;;
21010;SDS011;10663;42.714;23.274;2023-12-04T01:41:44;14.25;;;10.82;;
21010;SDS011;10663;42.714;23.274;2023-12-04T01:43:15;15.93;;;12.00;;
21010;SDS011;10663;42.714;23.274;2023-12-04T01:44:46;14.65;;;11.25;;
21010;SDS011;10663;42.714;23.274;2023-12-04T01:46:17;14.63;;;10.80;;
21010;SDS011;10663;42.714;23.274;2023-12-04T01:47:48;14.00;;;10.82;;
21010;SDS011;10663;42.714;23.274;2023-12-04T01:49:19;13.05;;;10.35;;
21010;SDS011;10663;42.714;23.274;2023-12-04T01:50:50;12.95;;;10.45;;
21010;SDS011;10663;42.714;23.274;2023-12-04T01:52:22;12.68;;;10.52;;
21010;SDS011;10663;42.714;23.274;2023-12-04T01:53:53;12.97;;;10.07;;
21010;SDS011;10663;42.714;23.274;2023-12-04T01:55:25;14.10;;;10.63;;
21010;SDS011;10663;42.714;23.274;2023-12-04T01:56:57;12.43;;;10.07;;
21010;SDS011;10663;42.714;23.274;2023-12-04T01:58:28;12.77;;;10.00;;
21010;SDS011;10663;42.714;23.274;2023-12-04T01:59:59;13.52;;;10.75;;
21010;SDS011;10663;42.714;23.274;2023-12-04T02:01:42;14.60;;;10.18;;
21010;SDS011;10663;42.714;23.274;2023-12-04T02:03:12;12.65;;;10.07;;
21010;SDS011;10663;42.714;23.274;2023-12-04T02:04:44;14.05;;;10.48;;
21010;SDS011;10663;42.714;23.274;2023-12-04T02:06:15;11.93;;;9.77;;
21010;SDS011;10663;42.714;23.274;2023-12-04T02:07:47;12.10;;;9.90;;
21010;SDS011;10663;42.714;23.274;2023-12-04T02:09:18;13.85;;;11.00;;
21010;SDS011;10663;42.714;23.274;2023-12-04T02:10:49;13.45;;;10.15;;
21010;SDS011;10663;42.714;23.274;2023-12-04T02:12:20;15.20;;;11.05;;
21010;SDS011;10663;42.714;23.274;2023-12-04T02:13:51;14.38;;;11.60;;
21010;SDS011;10663;42.714;23.274;2023-12-04T02:15:22;13.43;;;9.80;;
21010;SDS011;10663;42.714;23.274;2023-12-04T02:16:53;13.57;;;10.17;;
21010;SDS011;10663;42.714;23.274;2023-12-04T02:18:26;13.52;;;10.65;;
21010;SDS011;10663;42.714;23.274;2023-12-04T02:19:57;14.10;;;10.27;;
21010;SDS011;10663;42.714;23.274;2023-12-04T02:21:27;12.17;;;10.40;;
21010;SDS011;10663;42.714;23.274;2023-12-04T02:22:58;13.90;;;9.50;;
21010;SDS011;10663;42.714;23.274;2023-12-04T02:24:30;12.65;;;10.25;;
21010;SDS011;10663;42.714;23.274;2023-12-04T02:26:10;12.30;;;9.35;;
21010;SDS011;10663;42.714;23.274;2023-12-04T02:27:52;12.95;;;9.88;;
21010;SDS011;10663;42.714;23.274;2023-12-04T02:29:31;12.35;;;9.30;;
21010;SDS011;10663;42.714;23.274;2023-12-04T02:31:07;11.82;;;9.57;;
21010;SDS011;10663;42.714;23.274;2023-12-04T02:32:42;14.20;;;10.40;;
21010;SDS011;10663;42.714;23.274;2023-12-04T02:34:16;12.88;;;9.90;;
21010;SDS011;10663;42.714;23.274;2023-12-04T02:35:48;12.05;;;9.50;;
21010;SDS011;10663;42.714;23.274;2023-12-04T02:37:20;12.48;;;10.48;;
21010;SDS011;10663;42.714;23.274;2023-12-04T02:38:53;14.75;;;10.07;;
21010;SDS011;10663;42.714;23.274;2023-12-04T02:40:25;13.02;;;10.25;;
21010;SDS011;10663;42.714;23.274;2023-12-04T02:41:56;14.33;;;10.30;;
21010;SDS011;10663;42.714;23.274;2023-12-04T02:43:27;14.60;;;10.30;;
21010;SDS011;10663;42.714;23.274;2023-12-04T02:44:57;12.70;;;9.90;;
21010;SDS011;10663;42.714;23.274;2023-12-04T02:46:28;11.27;;;9.60;;
21010;SDS011;10663;42.714;23.274;2023-12-04T02:47:59;15.32;;;10.02;;
21010;SDS011;10663;42.714;23.274;2023-12-04T02:49:30;14.43;;;10.65;;
21010;SDS011;10663;42.714;23.274;2023-12-04T02:51:01;13.98;;;10.27;;
21010;SDS011;10663;42.714;23.274;2023-12-04T02:52:33;14.10;;;10.27;;
21010;SDS011;10663;42.714;23.274;2023-12-04T02:54:04;13.15;;;9.93;;
21010;SDS011;10663;42.714;23.274;2023-12-04T02:55:34;13.52;;;9.85;;
21010;SDS011;10663;42.714;23.274;2023-12-04T02:57:05;14.63;;;10.73;;
21010;SDS011;10663;42.714;23.274;2023-12-04T02:58:36;14.40;;;10.10;;
21010;SDS011;10663;42.714;23.274;2023-12-04T03:00:08;12.77;;;10.13;;
21010;SDS011;10663;42.714;23.274;2023-12-04T03:01:39;13.80;;;9.88;;
21010;SDS011;10663;42.714;23.274;2023-12-04T03:03:10;13.15;;;10.15;;
21010;SDS011;10663;42.714;23.274;2023-12-04T03:04:41;13.05;;;9.98;;
21010;SDS011;10663;42.714;23.274;2023-12-04T03:06:12;14.80;;;10.27;;
21010;SDS011;10663;42.714;23.274;2023-12-04T03:07:42;14.13;;;10.63;;
21010;SDS011;10663;42.714;23.274;2023-12-04T03:09:13;12.38;;;9.30;;
21010;SDS011;10663;42.714;23.274;2023-12-04T03:10:44;13.13;;;9.90;;
21010;SDS011;10663;42.714;23.274;2023-12-04T03:12:14;13.20;;;10.30;;
21010;SDS011;10663;42.714;23.274;2023-12-04T03:13:45;15.20;;;11.10;;
21010;SDS011;10663;42.714;23.274;2023-12-04T03:15:16;15.60;;;10.38;;
21010;SDS011;10663;42.714;23.274;2023-12-04T03:16:47;13.35;;;10.13;;
21010;SDS011;10663;42.714;23.274;2023-12-04T03:18:17;12.88;;;9.60;;
21010;SDS011;10663;42.714;23.274;2023-12-04T03:19:48;15.23;;;10.73;;
21010;SDS011;10663;42.714;23.274;2023-12-04T03:21:19;12.27;;;10.18;;
21010;SDS011;10663;42.714;23.274;2023-12-04T03:22:50;15.15;;;10.80;;
21010;SDS011;10663;42.714;23.274;2023-12-04T03:24:20;12.90;;;10.23;;
21010;SDS011;10663;42.714;23.274;2023-12-04T03:25:51;13.53;;;10.37;;
21010;SDS011;10663;42.714;23.274;2023-12-04T03:27:21;13.27;;;10.07;;
21010;SDS011;10663;42.714;23.274;2023-12-04T03:28:52;13.73;;;9.65;;
21010;SDS011;10663;42.714;23.274;2023-12-04T03:30:23;15.40;;;10.20;;
21010;SDS011;10663;42.714;23.274;2023-12-04T03:31:54;13.65;;;9.85;;
21010;SDS011;10663;42.714;23.274;2023-12-04T03:33:24;12.23;;;9.40;;
21010;SDS011;10663;42.714;23.274;2023-12-04T03:34:55;12.87;;;9.53;;
21010;SDS011;10663;42.714;23.274;2023-12-04T03:36:26;12.70;;;9.73;;
21010;SDS011;10663;42.714;23.274;2023-12-04T03:37:56;12.87;;;10.50;;
21010;SDS011;10663;42.714;23.274;2023-12-04T03:39:27;12.32;;;10.27;;
21010;SDS011;10663;42.714;23.274;2023-12-04T03:40:58;11.75;;;9.63;;
21010;SDS011;10663;42.714;23.274;2023-12-04T03:42:29;12.23;;;9.70;;
21010;SDS011;10663;42.714;23.274;2023-12-04T03:43:59;11.50;;;9.40;;
21010;SDS011;10663;42.714;23.274;2023-12-04T03:45:30;14.20;;;10.18;;
21010;SDS011;10663;42.714;23.274;2023-12-04T03:47:01;14.35;;;9.45;;
21010;SDS011;10663;42.714;23.274;2023-12-04T03:48:31;12.43;;;9.48;;
21010;SDS011;10663;42.714;23.274;2023-12-04T03:50:02;12.33;;;10.13;;
21010;SDS011;10663;42.714;23.274;2023-12-04T03:51:33;13.40;;;9.70;;
21010;SDS011;10663;42.714;23.274;2023-12-04T03:53:04;18.87;;;11.87;;
21010;SDS011;10663;42.714;23.274;2023-12-04T03:54:34;14.00;;;10.00;;
21010;SDS011;10663;42.714;23.274;2023-12-04T03:56:05;13.02;;;9.45;;
21010;SDS011;10663;42.714;23.274;2023-12-04T03:57:36;13.70;;;9.80;;
21010;SDS011;10663;42.714;23.274;2023-12-04T03:59:08;11.30;;;8.77;;
21010;SDS011;10663;42.714;23.274;2023-12-04T04:00:40;13.82;;;9.95;;
21010;SDS011;10663;42.714;23.274;2023-12-04T04:02:13;12.63;;;9.35;;
21010;SDS011;10663;42.714;23.274;2023-12-04T04:03:44;11.52;;;9.25;;
21010;SDS011;10663;42.714;23.274;2023-12-04T04:05:16;12.27;;;9.60;;
21010;SDS011;10663;42.714;23.274;2023-12-04T04:06:47;12.50;;;9.75;;
21010;SDS011;10663;42.714;23.274;2023-12-04T04:08:17;11.60;;;8.98;;
21010;SDS011;10663;42.714;23.274;2023-12-04T04:09:48;12.57;;;9.18;;
21010;SDS011;10663;42.714;23.274;2023-12-04T04:11:19;13.27;;;9.95;;
21010;SDS011;10663;42.714;23.274;2023-12-04T04:12:49;12.33;;;9.47;;
21010;SDS011;10663;42.714;23.274;2023-12-04T04:14:20;11.83;;;9.13;;
21010;SDS011;10663;42.714;23.274;2023-12-04T04:15:51;11.27;;;9.33;;
21010;SDS011;10663;42.714;23.274;2023-12-04T04:17:21;12.77;;;9.32;;
21010;SDS011;10663;42.714;23.274;2023-12-04T04:18:52;10.93;;;8.85;;
21010;SDS011;10663;42.714;23.274;2023-12-04T04:20:23;11.35;;;8.77;;
21010;SDS011;10663;42.714;23.274;2023-12-04T04:21:54;10.90;;;8.88;;
21010;SDS011;10663;42.714;23.274;2023-12-04T04:23:24;11.45;;;8.93;;
21010;SDS011;10663;42.714;23.274;2023-12-04T04:24:55;11.38;;;9.13;;
21010;SDS011;10663;42.714;23.274;2023-12-04T04:26:26;12.20;;;9.38;;
21010;SDS011;10663;42.714;23.274;2023-12-04T04:27:57;13.77;;;10.27;;
21010;SDS011;10663;42.714;23.274;2023-12-04T04:29:27;13.15;;;9.80;;
21010;SDS011;10663;42.714;23.274;2023-12-04T04:30:58;11.73;;;10.07;;
21010;SDS011;10663;42.714;23.274;2023-12-04T04:32:29;13.83;;;10.10;;
21010;SDS011;10663;42.714;23.274;2023-12-04T04:33:59;14.38;;;10.38;;
21010;SDS011;10663;42.714;23.274;2023-12-04T04:35:30;15.20;;;9.70;;
21010;SDS011;10663;42.714;23.274;2023-12-04T04:37:01;14.15;;;10.40;;
21010;SDS011;10663;42.714;23.274;2023-12-04T04:38:31;12.43;;;8.95;;
21010;SDS011;10663;42.714;23.274;2023-12-04T04:40:02;12.05;;;9.25;;
21010;SDS011;10663;42.714;23.274;2023-12-04T04:41:34;11.75;;;8.95;;
21010;SDS011;10663;42.714;23.274;2023-12-04T04:43:05;11.80;;;8.93;;
21010;SDS011;10663;42.714;23.274;2023-12-04T04:44:36;10.75;;;8.85;;
21010;SDS011;10663;42.714;23.274;2023-12-04T04:46:07;12.18;;;9.35;;
21010;SDS011;10663;42.714;23.274;2023-12-04T04:47:37;11.70;;;9.10;;
21010;SDS011;10663;42.714;23.274;2023-12-04T04:49:08;13.00;;;9.93;;
21010;SDS011;10663;42.714;23.274;2023-12-04T04:50:39;12.77;;;9.40;;
21010;SDS011;10663;42.714;23.274;2023-12-04T04:52:09;13.00;;;10.07;;
21010;SDS011;10663;42.714;23.274;2023-12-04T04:53:40;11.57;;;9.17;;
21010;SDS011;10663;42.714;23.274;2023-12-04T04:55:11;13.55;;;10.15;;
21010;SDS011;10663;42.714;23.274;2023-12-04T04:56:41;11.82;;;9.48;;
21010;SDS011;10663;42.714;23.274;2023-12-04T04:58:12;12.90;;;9.65;;
21010;SDS011;10663;42.714;23.274;2023-12-04T04:59:43;12.52;;;9.45;;
21010;SDS011;10663;42.714;23.274;2023-12-04T05:01:14;11.83;;;9.30;;
21010;SDS011;10663;42.714;23.274;2023-12-04T05:02:49;11.95;;;9.35;;
21010;SDS011;10663;42.714;23.274;2023-12-04T05:04:19;13.25;;;9.88;;
21010;SDS011;10663;42.714;23.274;2023-12-04T05:05:50;12.80;;;9.03;;
21010;SDS011;10663;42.714;23.274;2023-12-04T05:07:21;12.13;;;9.15;;
21010;SDS011;10663;42.714;23.274;2023-12-04T05:08:52;12.43;;;9.60;;
21010;SDS011;10663;42.714;23.274;2023-12-04T05:10:23;13.57;;;10.20;;
21010;SDS011;10663;42.714;23.274;2023-12-04T05:11:53;13.18;;;9.57;;
21010;SDS011;10663;42.714;23.274;2023-12-04T05:13:24;13.00;;;9.95;;
21010;SDS011;10663;42.714;23.274;2023-12-04T05:14:55;11.80;;;9.32;;
21010;SDS011;10663;42.714;23.274;2023-12-04T05:16:26;11.75;;;9.02;;
21010;SDS011;10663;42.714;23.274;2023-12-04T05:17:58;10.63;;;8.98;;
21010;SDS011;10663;42.714;23.274;2023-12-04T05:19:29;11.50;;;8.77;;
21010;SDS011;10663;42.714;23.274;2023-12-04T05:20:59;13.82;;;9.32;;
21010;SDS011;10663;42.714;23.274;2023-12-04T05:22:30;11.55;;;8.48;;
21010;SDS011;10663;42.714;23.274;2023-12-04T05:24:01;14.83;;;9.20;;
21010;SDS011;10663;42.714;23.274;2023-12-04T05:25:32;13.27;;;9.43;;
21010;SDS011;10663;42.714;23.274;2023-12-04T05:27:02;11.63;;;8.97;;
21010;SDS011;10663;42.714;23.274;2023-12-04T05:28:33;11.93;;;9.45;;
21010;SDS011;10663;42.714;23.274;2023-12-04T05:30:04;12.02;;;8.68;;
21010;SDS011;10663;42.714;23.274;2023-12-04T05:31:36;12.50;;;9.25;;
21010;SDS011;10663;42.714;23.274;2023-12-04T05:33:06;12.63;;;9.57;;
21010;SDS011;10663;42.714;23.274;2023-12-04T05:34:37;13.20;;;9.47;;
21010;SDS011;10663;42.714;23.274;2023-12-04T05:36:08;12.23;;;9.67;;
21010;SDS011;10663;42.714;23.274;2023-12-04T05:37:40;12.63;;;9.25;;
21010;SDS011;10663;42.714;23.274;2023-12-04T05:39:11;11.85;;;9.32;;
21010;SDS011;10663;42.714;23.274;2023-12-04T05:40:41;12.93;;;9.27;;
21010;SDS011;10663;42.714;23.274;2023-12-04T05:42:12;12.70;;;9.68;;
21010;SDS011;10663;42.714;23.274;2023-12-04T05:43:43;13.68;;;10.10;;
21010;SDS011;10663;42.714;23.274;2023-12-04T05:45:13;14.18;;;10.02;;
21010;SDS011;10663;42.714;23.274;2023-12-04T05:46:44;14.77;;;9.88;;
21010;SDS011;10663;42.714;23.274;2023-12-04T05:48:15;16.50;;;10.57;;
21010;SDS011;10663;42.714;23.274;2023-12-04T05:49:45;13.13;;;10.07;;
21010;SDS011;10663;42.714;23.274;2023-12-04T05:51:17;14.80;;;10.70;;
21010;SDS011;10663;42.714;23.274;2023-12-04T05:52:48;14.88;;;10.20;;
21010;SDS011;10663;42.714;23.274;2023-12-04T05:54:18;13.45;;;9.82;;
21010;SDS011;10663;42.714;23.274;2023-12-04T05:55:49;13.40;;;9.88;;
21010;SDS011;10663;42.714;23.274;2023-12-04T05:57:20;12.05;;;9.70;;
21010;SDS011;10663;42.714;23.274;2023-12-04T05:58:50;11.17;;;9.27;;
21010;SDS011;10663;42.714;23.274;2023-12-04T06:00:21;13.03;;;9.77;;
21010;SDS011;10663;42.714;23.274;2023-12-04T06:01:52;13.23;;;9.37;;
21010;SDS011;10663;42.714;23.274;2023-12-04T06:03:23;11.20;;;9.23;;
21010;SDS011;10663;42.714;23.274;2023-12-04T06:04:54;12.65;;;9.02;;
21010;SDS011;10663;42.714;23.274;2023-12-04T06:06:25;12.17;;;8.97;;
21010;SDS011;10663;42.714;23.274;2023-12-04T06:07:55;12.40;;;9.30;;
21010;SDS011;10663;42.714;23.274;2023-12-04T06:09:28;10.13;;;8.30;;
21010;SDS011;10663;42.714;23.274;2023-12-04T06:10:59;12.02;;;8.80;;
21010;SDS011;10663;42.714;23.274;2023-12-04T06:12:30;11.07;;;8.80;;
21010;SDS011;10663;42.714;23.274;2023-12-04T06:14:01;12.23;;;9.23;;
21010;SDS011;10663;42.714;23.274;2023-12-04T06:15:32;13.07;;;9.30;;
21010;SDS011;10663;42.714;23.274;2023-12-04T06:17:02;13.00;;;9.30;;
21010;SDS011;10663;42.714;23.274;2023-12-04T06:18:33;12.10;;;9.07;;
21010;SDS011;10663;42.714;23.274;2023-12-04T06:20:04;12.67;;;9.20;;
21010;SDS011;10663;42.714;23.274;2023-12-04T06:21:36;11.13;;;8.57;;
21010;SDS011;10663;42.714;23.274;2023-12-04T06:23:07;10.30;;;8.70;;
21010;SDS011;10663;42.714;23.274;2023-12-04T06:24:38;11.27;;;8.70;;
21010;SDS011;10663;42.714;23.274;2023-12-04T06:26:09;11.05;;;8.73;;
21010;SDS011;10663;42.714;23.274;2023-12-04T06:27:41;12.52;;;9.75;;
21010;SDS011;10663;42.714;23.274;2023-12-04T06:29:12;12.45;;;9.15;;
21010;SDS011;10663;42.714;23.274;2023-12-04T06:30:43;11.17;;;8.73;;
21010;SDS011;10663;42.714;23.274;2023-12-04T06:32:14;12.43;;;8.93;;
21010;SDS011;10663;42.714;23.274;2023-12-04T06:33:45;12.25;;;9.07;;
21010;SDS011;10663;42.714;23.274;2023-12-04T06:35:16;11.00;;;8.75;;
21010;SDS011;10663;42.714;23.274;2023-12-04T06:36:48;11.93;;;8.65;;
21010;SDS011;10663;42.714;23.274;2023-12-04T06:38:19;12.05;;;8.50;;
21010;SDS011;10663;42.714;23.274;2023-12-04T06:39:54;12.00;;;9.38;;
21010;SDS011;10663;42.714;23.274;2023-12-04T06:41:30;12.55;;;9.10;;
21010;SDS011;10663;42.714;23.274;2023-12-04T06:43:01;12.68;;;9.45;;
21010;SDS011;10663;42.714;23.274;2023-12-04T06:44:32;12.13;;;8.75;;
21010;SDS011;10663;42.714;23.274;2023-12-04T06:46:03;11.77;;;8.73;;
21010;SDS011;10663;42.714;23.274;2023-12-04T06:47:35;11.90;;;8.65;;
21010;SDS011;10663;42.714;23.274;2023-12-04T06:49:07;12.65;;;8.95;;
21010;SDS011;10663;42.714;23.274;2023-12-04T06:50:39;11.75;;;8.88;;
21010;SDS011;10663;42.714;23.274;2023-12-04T06:52:10;11.35;;;8.75;;
21010;SDS011;10663;42.714;23.274;2023-12-04T06:53:41;12.52;;;9.00;;
21010;SDS011;10663;42.714;23.274;2023-12-04T06:55:12;11.85;;;9.10;;
21010;SDS011;10663;42.714;23.274;2023-12-04T06:56:43;12.07;;;9.60;;
21010;SDS011;10663;42.714;23.274;2023-12-04T06:58:14;11.53;;;8.67;;
21010;SDS011;10663;42.714;23.274;2023-12-04T06:59:44;12.83;;;9.60;;
21010;SDS011;10663;42.714;23.274;2023-12-04T07:01:16;10.85;;;8.77;;
21010;SDS011;10663;42.714;23.274;2023-12-04T07:02:47;12.38;;;9.18;;
21010;SDS011;10663;42.714;23.274;2023-12-04T07:04:17;11.93;;;8.75;;
21010;SDS011;10663;42.714;23.274;2023-12-04T07:05:51;10.27;;;8.10;;
21010;SDS011;10663;42.714;23.274;2023-12-04T07:07:22;10.10;;;8.20;;
21010;SDS011;10663;42.714;23.274;2023-12-04T07:08:52;10.80;;;8.77;;
21010;SDS011;10663;42.714;23.274;2023-12-04T07:10:23;11.52;;;8.48;;
21010;SDS011;10663;42.714;23.274;2023-12-04T07:11:54;11.50;;;8.77;;
21010;SDS011;10663;42.714;23.274;2023-12-04T07:13:25;10.88;;;8.30;;
21010;SDS011;10663;42.714;23.274;2023-12-04T07:14:55;10.48;;;8.38;;
21010;SDS011;10663;42.714;23.274;2023-12-04T07:16:26;10.63;;;8.45;;
21010;SDS011;10663;42.714;23.274;2023-12-04T07:17:57;13.73;;;8.90;;
21010;SDS011;10663;42.714;23.274;2023-12-04T07:19:27;10.70;;;8.53;;
21010;SDS011;10663;42.714;23.274;2023-12-04T07:20:59;11.75;;;8.60;;
21010;SDS011;10663;42.714;23.274;2023-12-04T07:22:29;12.50;;;8.63;;
21010;SDS011;10663;42.714;23.274;2023-12-04T07:24:01;11.25;;;8.75;;
21010;SDS011;10663;42.714;23.274;2023-12-04T07:25:32;13.57;;;9.30;;
21010;SDS011;10663;42.714;23.274;2023-12-04T07:27:03;12.05;;;8.82;;
21010;SDS011;10663;42.714;23.274;2023-12-04T07:28:34;10.77;;;8.73;;
21010;SDS011;10663;42.714;23.274;2023-12-04T07:30:05;13.00;;;9.27;;
21010;SDS011;10663;42.714;23.274;2023-12-04T07:31:37;13.05;;;9.20;;
21010;SDS011;10663;42.714;23.274;2023-12-04T07:33:08;10.68;;;8.35;;
21010;SDS011;10663;42.714;23.274;2023-12-04T07:34:39;12.23;;;8.53;;
21010;SDS011;10663;42.714;23.274;2023-12-04T07:36:09;11.20;;;8.70;;
21010;SDS011;10663;42.714;23.274;2023-12-04T07:37:40;11.23;;;8.77;;
21010;SDS011;10663;42.714;23.274;2023-12-04T07:39:11;13.77;;;8.47;;
21010;SDS011;10663;42.714;23.274;2023-12-04T07:40:42;12.77;;;9.73;;
21010;SDS011;10663;42.714;23.274;2023-12-04T07:42:12;13.57;;;10.15;;
21010;SDS011;10663;42.714;23.274;2023-12-04T07:43:43;11.45;;;9.35;;
21010;SDS011;10663;42.714;23.274;2023-12-04T07:45:15;11.10;;;8.57;;
21010;SDS011;10663;42.714;23.274;2023-12-04T07:46:46;11.90;;;9.07;;
21010;SDS011;10663;42.714;23.274;2023-12-04T07:48:16;13.25;;;9.52;;
21010;SDS011;10663;42.714;23.274;2023-12-04T07:49:47;12.75;;;9.85;;
21010;SDS011;10663;42.714;23.274;2023-12-04T07:51:18;12.67;;;9.63;;
21010;SDS011;10663;42.714;23.274;2023-12-04T07:52:49;14.20;;;9.53;;
21010;SDS011;10663;42.714;23.274;2023-12-04T07:54:19;14.67;;;9.90;;
21010;SDS011;10663;42.714;23.274;2023-12-04T07:55:50;13.40;;;8.65;;
21010;SDS011;10663;42.714;23.274;2023-12-04T07:57:22;10.73;;;8.23;;
21010;SDS011;10663;42.714;23.274;2023-12-04T07:58:53;12.60;;;8.43;;
21010;SDS011;10663;42.714;23.274;2023-12-04T08:00:23;10.40;;;8.65;;
21010;SDS011;10663;42.714;23.274;2023-12-04T08:01:55;12.50;;;8.50;;
21010;SDS011;10663;42.714;23.274;2023-12-04T08:03:26;14.13;;;8.73;;
21010;SDS011;10663;42.714;23.274;2023-12-04T08:04:57;11.02;;;8.63;;
21010;SDS011;10663;42.714;23.274;2023-12-04T08:06:28;9.68;;;7.30;;
21010;SDS011;10663;42.714;23.274;2023-12-04T08:08:00;10.20;;;7.10;;
21010;SDS011;10663;42.714;23.274;2023-12-04T08:09:30;11.68;;;7.78;;
21010;SDS011;10663;42.714;23.274;2023-12-04T08:11:01;9.68;;;7.65;;
21010;SDS011;10663;42.714;23.274;2023-12-04T08:12:32;9.70;;;8.07;;
21010;SDS011;10663;42.714;23.274;2023-12-04T08:14:05;10.53;;;7.17;;
21010;SDS011;10663;42.714;23.274;2023-12-04T08:15:36;8.27;;;7.07;;
21010;SDS011;10663;42.714;23.274;2023-12-04T08:17:06;11.13;;;7.60;;
21010;SDS011;10663;42.714;23.274;2023-12-04T08:18:37;10.73;;;7.27;;
21010;SDS011;10663;42.714;23.274;2023-12-04T08:20:08;8.20;;;7.17;;
21010;SDS011;10663;42.714;23.274;2023-12-04T08:21:43;9.93;;;7.25;;
21010;SDS011;10663;42.714;23.274;2023-12-04T08:23:14;10.40;;;7.03;;
21010;SDS011;10663;42.714;23.274;2023-12-04T08:24:45;9.63;;;7.15;;
21010;SDS011;10663;42.714;23.274;2023-12-04T08:26:22;9.03;;;7.10;;
21010;SDS011;10663;42.714;23.274;2023-12-04T08:27:54;9.70;;;6.68;;
21010;SDS011;10663;42.714;23.274;2023-12-04T08:29:25;9.93;;;7.30;;
21010;SDS011;10663;42.714;23.274;2023-12-04T08:30:56;8.80;;;6.68;;
21010;SDS011;10663;42.714;23.274;2023-12-04T08:32:26;9.67;;;6.93;;
21010;SDS011;10663;42.714;23.274;2023-12-04T08:33:57;10.07;;;6.97;;
21010;SDS011;10663;42.714;23.274;2023-12-04T08:35:28;8.57;;;7.00;;
21010;SDS011;10663;42.714;23.274;2023-12-04T08:36:59;9.90;;;7.15;;
21010;SDS011;10663;42.714;23.274;2023-12-04T08:38:30;10.63;;;7.20;;
21010;SDS011;10663;42.714;23.274;2023-12-04T08:40:01;10.67;;;7.33;;
21010;SDS011;10663;42.714;23.274;2023-12-04T08:41:33;9.05;;;7.50;;
21010;SDS011;10663;42.714;23.274;2023-12-04T08:43:03;9.93;;;7.15;;
21010;SDS011;10663;42.714;23.274;2023-12-04T08:44:34;9.00;;;7.28;;
21010;SDS011;10663;42.714;23.274;2023-12-04T08:46:06;9.07;;;7.40;;
21010;SDS011;10663;42.714;23.274;2023-12-04T08:47:37;9.00;;;7.00;;
21010;SDS011;10663;42.714;23.274;2023-12-04T08:49:08;9.00;;;7.30;;